sensor_id;sensor_type;location;lat;lon;timestamp;P1;durP1;ratioP1;P2;durP2;ratioP2
14754;SDS011;7469;50.906;6.952;2023-07-31T00:01:03;8.13;;;3.63;;
14754;SDS011;7469;50.906;6.952;2023-07-31T00:03:32;7.60;;;3.70;;
14754;SDS011;7469;50.906;6.952;2023-07-31T00:06:00;10.73;;;3.63;;
14754;SDS011;7469;50.906;6.952;2023-07-31T00:08:29;7.80;;;3.43;;
14754;SDS011;7469;50.906;6.952;2023-07-31T00:10:57;7.20;;;3.10;;
14754;SDS011;7469;50.906;6.952;2023-07-31T00:13:25;6.37;;;3.63;;
14754;SDS011;7469;50.906;6.952;2023-07-31T00:15:53;7.60;;;3.60;;
14754;SDS011;7469;50.906;6.952;2023-07-31T00:18:21;7.13;;;3.80;;
14754;SDS011;7469;50.906;6.952;2023-07-31T00:20:49;6.67;;;3.60;;
14754;SDS011;7469;50.906;6.952;2023-07-31T00:23:16;9.27;;;3.80;;
14754;SDS011;7469;50.906;6.952;2023-07-31T00:25:46;8.17;;;3.83;;
14754;SDS011;7469;50.906;6.952;2023-07-31T00:28:14;10.13;;;3.87;;
14754;SDS011;7469;50.906;6.952;2023-07-31T00:30:42;9.17;;;3.60;;
14754;SDS011;7469;50.906;6.952;2023-07-31T00:33:10;7.90;;;3.60;;
14754;SDS011;7469;50.906;6.952;2023-07-31T00:35:38;6.60;;;3.37;;
14754;SDS011;7469;50.906;6.952;2023-07-31T00:38:06;6.63;;;3.63;;
14754;SDS011;7469;50.906;6.952;2023-07-31T00:40:34;5.80;;;3.10;;
14754;SDS011;7469;50.906;6.952;2023-07-31T00:43:04;7.43;;;3.47;;
14754;SDS011;7469;50.906;6.952;2023-07-31T00:45:33;13.03;;;3.20;;
14754;SDS011;7469;50.906;6.952;2023-07-31T00:48:01;6.37;;;3.00;;
14754;SDS011;7469;50.906;6.952;2023-07-31T00:50:29;6.00;;;3.03;;
14754;SDS011;7469;50.906;6.952;2023-07-31T00:52:57;5.87;;;2.90;;
14754;SDS011;7469;50.906;6.952;2023-07-31T00:55:25;5.27;;;2.93;;
14754;SDS011;7469;50.906;6.952;2023-07-31T00:57:54;3.97;;;2.60;;
14754;SDS011;7469;50.906;6.952;2023-07-31T01:00:24;4.40;;;2.30;;
14754;SDS011;7469;50.906;6.952;2023-07-31T01:02:52;6.40;;;2.50;;
14754;SDS011;7469;50.906;6.952;2023-07-31T01:05:21;6.10;;;2.80;;
14754;SDS011;7469;50.906;6.952;2023-07-31T01:07:55;7.10;;;2.70;;
14754;SDS011;7469;50.906;6.952;2023-07-31T01:10:29;10.10;;;3.00;;
14754;SDS011;7469;50.906;6.952;2023-07-31T01:13:02;5.70;;;2.77;;
14754;SDS011;7469;50.906;6.952;2023-07-31T01:15:33;7.00;;;2.73;;
14754;SDS011;7469;50.906;6.952;2023-07-31T01:18:03;4.47;;;2.67;;
14754;SDS011;7469;50.906;6.952;2023-07-31T01:20:31;4.93;;;2.90;;
14754;SDS011;7469;50.906;6.952;2023-07-31T01:26:21;5.97;;;3.00;;
14754;SDS011;7469;50.906;6.952;2023-07-31T01:28:54;7.90;;;2.73;;
14754;SDS011;7469;50.906;6.952;2023-07-31T01:31:26;7.67;;;2.97;;
14754;SDS011;7469;50.906;6.952;2023-07-31T01:33:57;6.37;;;2.57;;
14754;SDS011;7469;50.906;6.952;2023-07-31T01:36:28;7.07;;;2.50;;
14754;SDS011;7469;50.906;6.952;2023-07-31T01:38:57;5.17;;;2.47;;
14754;SDS011;7469;50.906;6.952;2023-07-31T01:41:27;5.90;;;3.40;;
14754;SDS011;7469;50.906;6.952;2023-07-31T01:43:55;5.10;;;2.90;;
14754;SDS011;7469;50.906;6.952;2023-07-31T01:46:23;5.40;;;3.10;;
14754;SDS011;7469;50.906;6.952;2023-07-31T01:48:51;5.40;;;2.60;;
14754;SDS011;7469;50.906;6.952;2023-07-31T01:51:19;10.60;;;3.60;;
14754;SDS011;7469;50.906;6.952;2023-07-31T01:53:47;6.57;;;3.00;;
14754;SDS011;7469;50.906;6.952;2023-07-31T01:56:15;3.80;;;2.47;;
14754;SDS011;7469;50.906;6.952;2023-07-31T01:58:45;6.27;;;3.10;;
14754;SDS011;7469;50.906;6.952;2023-07-31T02:01:13;4.03;;;2.60;;
14754;SDS011;7469;50.906;6.952;2023-07-31T02:03:41;5.73;;;2.83;;
14754;SDS011;7469;50.906;6.952;2023-07-31T02:06:09;6.87;;;3.30;;
14754;SDS011;7469;50.906;6.952;2023-07-31T02:08:37;7.90;;;2.83;;
14754;SDS011;7469;50.906;6.952;2023-07-31T02:11:05;6.87;;;2.83;;
14754;SDS011;7469;50.906;6.952;2023-07-31T02:13:33;7.47;;;3.37;;
14754;SDS011;7469;50.906;6.952;2023-07-31T02:16:03;5.93;;;3.20;;
14754;SDS011;7469;50.906;6.952;2023-07-31T02:18:31;7.80;;;3.40;;
14754;SDS011;7469;50.906;6.952;2023-07-31T02:20:59;6.60;;;3.50;;
14754;SDS011;7469;50.906;6.952;2023-07-31T02:23:27;9.57;;;3.10;;
14754;SDS011;7469;50.906;6.952;2023-07-31T02:25:55;5.67;;;2.93;;
14754;SDS011;7469;50.906;6.952;2023-07-31T02:28:23;4.60;;;2.93;;
14754;SDS011;7469;50.906;6.952;2023-07-31T02:30:51;6.53;;;2.63;;
14754;SDS011;7469;50.906;6.952;2023-07-31T02:33:20;5.83;;;2.97;;
14754;SDS011;7469;50.906;6.952;2023-07-31T02:35:48;5.23;;;3.00;;
14754;SDS011;7469;50.906;6.952;2023-07-31T02:38:18;6.03;;;3.33;;
14754;SDS011;7469;50.906;6.952;2023-07-31T02:40:46;4.07;;;2.90;;
14754;SDS011;7469;50.906;6.952;2023-07-31T02:43:14;7.17;;;2.97;;
14754;SDS011;7469;50.906;6.952;2023-07-31T02:45:42;7.40;;;3.80;;
14754;SDS011;7469;50.906;6.952;2023-07-31T02:48:10;7.20;;;3.20;;
14754;SDS011;7469;50.906;6.952;2023-07-31T02:50:40;10.00;;;3.93;;
14754;SDS011;7469;50.906;6.952;2023-07-31T02:53:08;7.57;;;3.50;;
14754;SDS011;7469;50.906;6.952;2023-07-31T02:55:36;8.37;;;3.40;;
14754;SDS011;7469;50.906;6.952;2023-07-31T02:58:05;8.27;;;2.73;;
14754;SDS011;7469;50.906;6.952;2023-07-31T03:00:33;8.13;;;3.87;;
14754;SDS011;7469;50.906;6.952;2023-07-31T03:03:01;7.47;;;3.77;;
14754;SDS011;7469;50.906;6.952;2023-07-31T03:05:29;7.07;;;3.37;;
14754;SDS011;7469;50.906;6.952;2023-07-31T03:07:58;3.97;;;2.53;;
14754;SDS011;7469;50.906;6.952;2023-07-31T03:10:26;5.63;;;3.10;;
14754;SDS011;7469;50.906;6.952;2023-07-31T03:12:54;8.93;;;3.70;;
14754;SDS011;7469;50.906;6.952;2023-07-31T03:15:22;5.93;;;3.50;;
14754;SDS011;7469;50.906;6.952;2023-07-31T03:17:50;9.00;;;3.50;;
14754;SDS011;7469;50.906;6.952;2023-07-31T03:20:18;8.67;;;3.67;;
14754;SDS011;7469;50.906;6.952;2023-07-31T03:22:46;10.07;;;3.90;;
14754;SDS011;7469;50.906;6.952;2023-07-31T03:25:16;5.87;;;3.60;;
14754;SDS011;7469;50.906;6.952;2023-07-31T03:27:44;6.40;;;3.40;;
14754;SDS011;7469;50.906;6.952;2023-07-31T03:30:12;5.47;;;3.23;;
14754;SDS011;7469;50.906;6.952;2023-07-31T03:32:40;6.93;;;2.97;;
14754;SDS011;7469;50.906;6.952;2023-07-31T03:35:08;7.73;;;3.80;;
14754;SDS011;7469;50.906;6.952;2023-07-31T03:37:36;9.10;;;3.73;;
14754;SDS011;7469;50.906;6.952;2023-07-31T03:40:04;7.17;;;3.03;;
14754;SDS011;7469;50.906;6.952;2023-07-31T03:42:37;9.03;;;3.33;;
14754;SDS011;7469;50.906;6.952;2023-07-31T03:45:06;7.53;;;3.40;;
14754;SDS011;7469;50.906;6.952;2023-07-31T03:47:35;8.90;;;3.50;;
14754;SDS011;7469;50.906;6.952;2023-07-31T03:50:03;10.00;;;3.67;;
14754;SDS011;7469;50.906;6.952;2023-07-31T03:52:31;7.03;;;3.40;;
14754;SDS011;7469;50.906;6.952;2023-07-31T03:54:59;9.27;;;3.50;;
14754;SDS011;7469;50.906;6.952;2023-07-31T03:57:27;5.60;;;3.43;;
14754;SDS011;7469;50.906;6.952;2023-07-31T03:59:56;11.57;;;3.93;;
14754;SDS011;7469;50.906;6.952;2023-07-31T04:02:24;7.63;;;3.90;;
14754;SDS011;7469;50.906;6.952;2023-07-31T04:04:52;7.03;;;3.60;;
14754;SDS011;7469;50.906;6.952;2023-07-31T04:07:20;9.53;;;4.00;;
14754;SDS011;7469;50.906;6.952;2023-07-31T04:09:48;5.33;;;3.03;;
14754;SDS011;7469;50.906;6.952;2023-07-31T04:12:16;8.00;;;3.93;;
14754;SDS011;7469;50.906;6.952;2023-07-31T04:14:44;9.43;;;3.70;;
14754;SDS011;7469;50.906;6.952;2023-07-31T04:17:13;4.43;;;3.30;;
14754;SDS011;7469;50.906;6.952;2023-07-31T04:19:41;8.33;;;3.90;;
14754;SDS011;7469;50.906;6.952;2023-07-31T04:22:09;6.40;;;4.00;;
14754;SDS011;7469;50.906;6.952;2023-07-31T04:24:37;7.63;;;3.53;;
14754;SDS011;7469;50.906;6.952;2023-07-31T04:27:05;10.10;;;3.77;;
14754;SDS011;7469;50.906;6.952;2023-07-31T04:29:33;8.63;;;3.70;;
14754;SDS011;7469;50.906;6.952;2023-07-31T04:32:01;7.80;;;4.20;;
14754;SDS011;7469;50.906;6.952;2023-07-31T04:34:31;7.97;;;3.83;;
14754;SDS011;7469;50.906;6.952;2023-07-31T04:36:59;8.17;;;3.93;;
14754;SDS011;7469;50.906;6.952;2023-07-31T04:39:27;5.33;;;3.40;;
14754;SDS011;7469;50.906;6.952;2023-07-31T04:41:55;8.43;;;3.53;;
14754;SDS011;7469;50.906;6.952;2023-07-31T04:44:23;6.53;;;3.37;;
14754;SDS011;7469;50.906;6.952;2023-07-31T04:46:51;8.07;;;3.90;;
14754;SDS011;7469;50.906;6.952;2023-07-31T04:49:19;7.97;;;3.90;;
14754;SDS011;7469;50.906;6.952;2023-07-31T04:51:51;8.13;;;3.90;;
14754;SDS011;7469;50.906;6.952;2023-07-31T04:54:19;7.53;;;3.90;;
14754;SDS011;7469;50.906;6.952;2023-07-31T04:56:47;8.87;;;3.70;;
14754;SDS011;7469;50.906;6.952;2023-07-31T04:59:15;8.30;;;3.97;;
14754;SDS011;7469;50.906;6.952;2023-07-31T05:01:42;4.80;;;3.30;;
14754;SDS011;7469;50.906;6.952;2023-07-31T05:04:12;7.60;;;3.70;;
14754;SDS011;7469;50.906;6.952;2023-07-31T05:06:41;5.43;;;3.30;;
14754;SDS011;7469;50.906;6.952;2023-07-31T05:09:10;7.37;;;3.60;;
14754;SDS011;7469;50.906;6.952;2023-07-31T05:11:39;6.57;;;3.83;;
14754;SDS011;7469;50.906;6.952;2023-07-31T05:14:09;5.80;;;3.90;;
14754;SDS011;7469;50.906;6.952;2023-07-31T05:16:38;5.60;;;3.73;;
14754;SDS011;7469;50.906;6.952;2023-07-31T05:19:07;5.57;;;3.53;;
14754;SDS011;7469;50.906;6.952;2023-07-31T05:21:35;7.83;;;4.07;;
14754;SDS011;7469;50.906;6.952;2023-07-31T05:24:03;6.57;;;3.50;;
14754;SDS011;7469;50.906;6.952;2023-07-31T05:26:33;7.90;;;3.33;;
14754;SDS011;7469;50.906;6.952;2023-07-31T05:29:01;6.37;;;3.60;;
14754;SDS011;7469;50.906;6.952;2023-07-31T05:31:29;4.57;;;3.40;;
14754;SDS011;7469;50.906;6.952;2023-07-31T05:33:58;4.43;;;3.27;;
14754;SDS011;7469;50.906;6.952;2023-07-31T05:36:26;7.37;;;3.80;;
14754;SDS011;7469;50.906;6.952;2023-07-31T05:38:54;7.90;;;3.97;;
14754;SDS011;7469;50.906;6.952;2023-07-31T05:41:23;5.33;;;3.37;;
14754;SDS011;7469;50.906;6.952;2023-07-31T05:43:52;5.67;;;3.93;;
14754;SDS011;7469;50.906;6.952;2023-07-31T05:46:20;4.90;;;3.37;;
14754;SDS011;7469;50.906;6.952;2023-07-31T05:48:48;8.20;;;4.20;;
14754;SDS011;7469;50.906;6.952;2023-07-31T05:51:16;6.67;;;3.70;;
14754;SDS011;7469;50.906;6.952;2023-07-31T05:53:44;5.37;;;3.40;;
14754;SDS011;7469;50.906;6.952;2023-07-31T05:56:12;8.27;;;3.80;;
14754;SDS011;7469;50.906;6.952;2023-07-31T05:58:40;6.53;;;3.30;;
14754;SDS011;7469;50.906;6.952;2023-07-31T06:01:09;6.67;;;3.40;;
14754;SDS011;7469;50.906;6.952;2023-07-31T06:03:37;5.20;;;3.60;;
14754;SDS011;7469;50.906;6.952;2023-07-31T06:06:05;6.30;;;3.20;;
14754;SDS011;7469;50.906;6.952;2023-07-31T06:08:34;6.67;;;3.40;;
14754;SDS011;7469;50.906;6.952;2023-07-31T06:11:02;5.83;;;3.40;;
14754;SDS011;7469;50.906;6.952;2023-07-31T06:13:30;5.77;;;3.67;;
14754;SDS011;7469;50.906;6.952;2023-07-31T06:15:58;7.23;;;3.53;;
14754;SDS011;7469;50.906;6.952;2023-07-31T06:18:28;5.63;;;3.53;;
14754;SDS011;7469;50.906;6.952;2023-07-31T06:20:56;6.70;;;4.57;;
14754;SDS011;7469;50.906;6.952;2023-07-31T06:23:24;6.00;;;3.50;;
14754;SDS011;7469;50.906;6.952;2023-07-31T06:25:52;8.17;;;3.60;;
14754;SDS011;7469;50.906;6.952;2023-07-31T06:28:20;6.17;;;3.77;;
14754;SDS011;7469;50.906;6.952;2023-07-31T06:30:48;7.77;;;3.70;;
14754;SDS011;7469;50.906;6.952;2023-07-31T06:33:16;6.83;;;3.73;;
14754;SDS011;7469;50.906;6.952;2023-07-31T06:35:45;5.97;;;3.80;;
14754;SDS011;7469;50.906;6.952;2023-07-31T06:38:13;5.40;;;3.67;;
14754;SDS011;7469;50.906;6.952;2023-07-31T06:40:41;6.03;;;3.87;;
14754;SDS011;7469;50.906;6.952;2023-07-31T06:43:09;6.37;;;3.40;;
14754;SDS011;7469;50.906;6.952;2023-07-31T06:45:37;4.37;;;3.20;;
14754;SDS011;7469;50.906;6.952;2023-07-31T06:48:05;6.90;;;3.40;;
14754;SDS011;7469;50.906;6.952;2023-07-31T06:50:33;8.07;;;3.37;;
14754;SDS011;7469;50.906;6.952;2023-07-31T06:53:03;7.37;;;3.50;;
14754;SDS011;7469;50.906;6.952;2023-07-31T06:55:31;8.23;;;3.80;;
14754;SDS011;7469;50.906;6.952;2023-07-31T06:57:59;8.10;;;3.63;;
14754;SDS011;7469;50.906;6.952;2023-07-31T07:00:27;5.97;;;3.70;;
14754;SDS011;7469;50.906;6.952;2023-07-31T07:02:56;6.33;;;3.60;;
14754;SDS011;7469;50.906;6.952;2023-07-31T07:05:24;5.20;;;3.67;;
14754;SDS011;7469;50.906;6.952;2023-07-31T07:07:52;7.30;;;3.73;;
14754;SDS011;7469;50.906;6.952;2023-07-31T07:10:21;5.97;;;3.60;;
14754;SDS011;7469;50.906;6.952;2023-07-31T07:12:49;7.10;;;4.37;;
14754;SDS011;7469;50.906;6.952;2023-07-31T07:15:17;5.27;;;3.33;;
14754;SDS011;7469;50.906;6.952;2023-07-31T07:17:45;5.87;;;3.57;;
14754;SDS011;7469;50.906;6.952;2023-07-31T07:20:13;6.33;;;3.80;;
14754;SDS011;7469;50.906;6.952;2023-07-31T07:22:41;4.80;;;3.60;;
14754;SDS011;7469;50.906;6.952;2023-07-31T07:25:10;10.20;;;3.80;;
14754;SDS011;7469;50.906;6.952;2023-07-31T07:27:39;6.87;;;3.93;;
14754;SDS011;7469;50.906;6.952;2023-07-31T07:30:07;7.53;;;3.70;;
14754;SDS011;7469;50.906;6.952;2023-07-31T07:32:35;7.37;;;3.70;;
14754;SDS011;7469;50.906;6.952;2023-07-31T07:35:04;6.27;;;3.80;;
14754;SDS011;7469;50.906;6.952;2023-07-31T07:37:33;9.13;;;3.90;;
14754;SDS011;7469;50.906;6.952;2023-07-31T07:40:01;8.33;;;4.00;;
14754;SDS011;7469;50.906;6.952;2023-07-31T07:42:29;6.70;;;3.97;;
14754;SDS011;7469;50.906;6.952;2023-07-31T07:44:58;6.37;;;3.70;;
14754;SDS011;7469;50.906;6.952;2023-07-31T07:47:26;7.00;;;4.07;;
14754;SDS011;7469;50.906;6.952;2023-07-31T07:49:54;7.03;;;3.87;;
14754;SDS011;7469;50.906;6.952;2023-07-31T07:52:23;8.00;;;4.00;;
14754;SDS011;7469;50.906;6.952;2023-07-31T07:54:51;7.43;;;3.77;;
14754;SDS011;7469;50.906;6.952;2023-07-31T07:57:19;9.53;;;3.77;;
14754;SDS011;7469;50.906;6.952;2023-07-31T07:59:46;4.47;;;3.47;;
14754;SDS011;7469;50.906;6.952;2023-07-31T08:02:16;6.97;;;3.33;;
14754;SDS011;7469;50.906;6.952;2023-07-31T08:04:44;6.00;;;3.50;;
14754;SDS011;7469;50.906;6.952;2023-07-31T08:07:12;5.53;;;3.60;;
14754;SDS011;7469;50.906;6.952;2023-07-31T08:09:40;7.73;;;3.90;;
14754;SDS011;7469;50.906;6.952;2023-07-31T08:12:08;5.53;;;3.27;;
14754;SDS011;7469;50.906;6.952;2023-07-31T08:14:36;7.33;;;3.70;;
14754;SDS011;7469;50.906;6.952;2023-07-31T08:17:04;6.23;;;3.17;;
14754;SDS011;7469;50.906;6.952;2023-07-31T08:19:33;8.37;;;3.40;;
14754;SDS011;7469;50.906;6.952;2023-07-31T08:22:02;6.17;;;3.43;;
14754;SDS011;7469;50.906;6.952;2023-07-31T08:24:30;4.87;;;3.13;;
14754;SDS011;7469;50.906;6.952;2023-07-31T08:26:59;8.60;;;3.70;;
14754;SDS011;7469;50.906;6.952;2023-07-31T08:29:27;5.47;;;3.20;;
14754;SDS011;7469;50.906;6.952;2023-07-31T08:31:55;4.57;;;2.70;;
14754;SDS011;7469;50.906;6.952;2023-07-31T08:34:23;5.77;;;3.10;;
14754;SDS011;7469;50.906;6.952;2023-07-31T08:36:52;4.87;;;3.57;;
14754;SDS011;7469;50.906;6.952;2023-07-31T08:39:20;4.33;;;3.10;;
14754;SDS011;7469;50.906;6.952;2023-07-31T08:41:48;4.27;;;2.97;;
14754;SDS011;7469;50.906;6.952;2023-07-31T08:44:16;9.60;;;3.90;;
14754;SDS011;7469;50.906;6.952;2023-07-31T08:46:45;9.40;;;4.23;;
14754;SDS011;7469;50.906;6.952;2023-07-31T08:49:14;4.57;;;3.27;;
14754;SDS011;7469;50.906;6.952;2023-07-31T08:51:45;8.20;;;3.27;;
14754;SDS011;7469;50.906;6.952;2023-07-31T08:54:18;5.77;;;3.57;;
14754;SDS011;7469;50.906;6.952;2023-07-31T08:56:46;6.40;;;3.20;;
14754;SDS011;7469;50.906;6.952;2023-07-31T08:59:14;6.20;;;3.30;;
14754;SDS011;7469;50.906;6.952;2023-07-31T09:01:46;4.20;;;2.80;;
14754;SDS011;7469;50.906;6.952;2023-07-31T09:04:19;6.23;;;3.00;;
14754;SDS011;7469;50.906;6.952;2023-07-31T09:06:48;6.77;;;3.00;;
14754;SDS011;7469;50.906;6.952;2023-07-31T09:09:18;6.57;;;3.27;;
14754;SDS011;7469;50.906;6.952;2023-07-31T09:11:47;3.83;;;2.83;;
14754;SDS011;7469;50.906;6.952;2023-07-31T09:14:17;8.73;;;3.00;;
14754;SDS011;7469;50.906;6.952;2023-07-31T09:16:53;4.73;;;2.70;;
14754;SDS011;7469;50.906;6.952;2023-07-31T09:19:25;5.47;;;2.80;;
14754;SDS011;7469;50.906;6.952;2023-07-31T09:21:54;4.37;;;2.60;;
14754;SDS011;7469;50.906;6.952;2023-07-31T09:24:27;3.53;;;2.33;;
14754;SDS011;7469;50.906;6.952;2023-07-31T09:26:57;2.77;;;2.47;;
14754;SDS011;7469;50.906;6.952;2023-07-31T09:29:26;6.50;;;2.87;;
14754;SDS011;7469;50.906;6.952;2023-07-31T09:31:57;3.90;;;2.50;;
14754;SDS011;7469;50.906;6.952;2023-07-31T09:34:28;4.57;;;2.53;;
14754;SDS011;7469;50.906;6.952;2023-07-31T09:36:58;5.97;;;2.70;;
14754;SDS011;7469;50.906;6.952;2023-07-31T09:39:30;4.77;;;2.60;;
14754;SDS011;7469;50.906;6.952;2023-07-31T09:41:58;4.47;;;2.57;;
14754;SDS011;7469;50.906;6.952;2023-07-31T09:44:37;5.03;;;2.80;;
14754;SDS011;7469;50.906;6.952;2023-07-31T09:47:07;7.03;;;2.73;;
14754;SDS011;7469;50.906;6.952;2023-07-31T09:49:49;7.53;;;2.47;;
14754;SDS011;7469;50.906;6.952;2023-07-31T09:52:17;4.27;;;2.90;;
14754;SDS011;7469;50.906;6.952;2023-07-31T09:54:47;3.90;;;2.23;;
14754;SDS011;7469;50.906;6.952;2023-07-31T09:57:15;5.70;;;3.10;;
14754;SDS011;7469;50.906;6.952;2023-07-31T09:59:46;7.23;;;3.00;;
14754;SDS011;7469;50.906;6.952;2023-07-31T10:02:15;4.67;;;2.50;;
14754;SDS011;7469;50.906;6.952;2023-07-31T10:04:50;6.33;;;2.80;;
14754;SDS011;7469;50.906;6.952;2023-07-31T10:07:18;3.50;;;2.50;;
14754;SDS011;7469;50.906;6.952;2023-07-31T10:09:52;7.23;;;2.70;;
14754;SDS011;7469;50.906;6.952;2023-07-31T10:12:21;4.87;;;2.73;;
14754;SDS011;7469;50.906;6.952;2023-07-31T10:14:52;4.60;;;2.70;;
14754;SDS011;7469;50.906;6.952;2023-07-31T10:17:22;5.60;;;2.53;;
14754;SDS011;7469;50.906;6.952;2023-07-31T10:19:51;4.53;;;2.23;;
14754;SDS011;7469;50.906;6.952;2023-07-31T10:22:20;5.47;;;3.23;;
14754;SDS011;7469;50.906;6.952;2023-07-31T10:24:49;5.80;;;2.67;;
14754;SDS011;7469;50.906;6.952;2023-07-31T10:27:21;6.10;;;2.73;;
14754;SDS011;7469;50.906;6.952;2023-07-31T10:29:49;4.13;;;2.63;;
14754;SDS011;7469;50.906;6.952;2023-07-31T10:32:19;4.70;;;2.63;;
14754;SDS011;7469;50.906;6.952;2023-07-31T10:34:48;4.73;;;2.70;;
14754;SDS011;7469;50.906;6.952;2023-07-31T10:37:21;3.70;;;2.30;;
14754;SDS011;7469;50.906;6.952;2023-07-31T10:40:00;4.80;;;2.70;;
14754;SDS011;7469;50.906;6.952;2023-07-31T10:42:35;4.30;;;2.47;;
14754;SDS011;7469;50.906;6.952;2023-07-31T10:45:05;2.97;;;2.20;;
14754;SDS011;7469;50.906;6.952;2023-07-31T10:47:36;4.03;;;2.33;;
14754;SDS011;7469;50.906;6.952;2023-07-31T10:50:12;3.50;;;2.47;;
14754;SDS011;7469;50.906;6.952;2023-07-31T10:52:48;4.23;;;2.40;;
14754;SDS011;7469;50.906;6.952;2023-07-31T10:55:28;3.53;;;1.80;;
14754;SDS011;7469;50.906;6.952;2023-07-31T10:58:05;3.97;;;2.03;;
14754;SDS011;7469;50.906;6.952;2023-07-31T11:00:36;3.10;;;2.07;;
14754;SDS011;7469;50.906;6.952;2023-07-31T11:03:06;3.70;;;1.93;;
14754;SDS011;7469;50.906;6.952;2023-07-31T11:05:50;2.40;;;1.80;;
14754;SDS011;7469;50.906;6.952;2023-07-31T11:08:21;2.53;;;1.90;;
14754;SDS011;7469;50.906;6.952;2023-07-31T11:10:50;2.80;;;1.63;;
14754;SDS011;7469;50.906;6.952;2023-07-31T11:13:33;1.60;;;1.50;;
14754;SDS011;7469;50.906;6.952;2023-07-31T11:16:07;2.93;;;1.27;;
14754;SDS011;7469;50.906;6.952;2023-07-31T11:18:35;5.43;;;1.77;;
14754;SDS011;7469;50.906;6.952;2023-07-31T11:21:05;2.47;;;1.27;;
14754;SDS011;7469;50.906;6.952;2023-07-31T11:23:33;3.07;;;1.17;;
14754;SDS011;7469;50.906;6.952;2023-07-31T11:26:04;0.90;;;0.90;;
14754;SDS011;7469;50.906;6.952;2023-07-31T11:28:34;1.73;;;1.37;;
14754;SDS011;7469;50.906;6.952;2023-07-31T11:31:03;1.17;;;1.00;;
14754;SDS011;7469;50.906;6.952;2023-07-31T11:33:31;1.37;;;0.93;;
14754;SDS011;7469;50.906;6.952;2023-07-31T11:35:59;1.47;;;1.30;;
14754;SDS011;7469;50.906;6.952;2023-07-31T11:38:28;1.47;;;1.13;;
14754;SDS011;7469;50.906;6.952;2023-07-31T11:40:58;1.50;;;1.30;;
14754;SDS011;7469;50.906;6.952;2023-07-31T11:43:29;1.40;;;1.00;;
14754;SDS011;7469;50.906;6.952;2023-07-31T11:46:00;1.00;;;0.90;;
14754;SDS011;7469;50.906;6.952;2023-07-31T11:48:31;1.47;;;1.00;;
14754;SDS011;7469;50.906;6.952;2023-07-31T11:51:02;0.80;;;0.80;;
14754;SDS011;7469;50.906;6.952;2023-07-31T11:53:31;2.27;;;1.00;;
14754;SDS011;7469;50.906;6.952;2023-07-31T11:56:03;0.70;;;0.70;;
14754;SDS011;7469;50.906;6.952;2023-07-31T11:58:34;0.60;;;0.60;;
14754;SDS011;7469;50.906;6.952;2023-07-31T12:01:03;1.97;;;1.13;;
14754;SDS011;7469;50.906;6.952;2023-07-31T12:03:32;1.53;;;1.20;;
14754;SDS011;7469;50.906;6.952;2023-07-31T12:06:01;0.90;;;0.90;;
14754;SDS011;7469;50.906;6.952;2023-07-31T12:08:29;2.93;;;1.20;;
14754;SDS011;7469;50.906;6.952;2023-07-31T12:11:01;1.17;;;0.80;;
14754;SDS011;7469;50.906;6.952;2023-07-31T12:13:30;0.93;;;0.93;;
14754;SDS011;7469;50.906;6.952;2023-07-31T12:16:00;0.90;;;0.90;;
14754;SDS011;7469;50.906;6.952;2023-07-31T12:18:33;1.27;;;1.10;;
14754;SDS011;7469;50.906;6.952;2023-07-31T12:21:04;1.40;;;1.20;;
14754;SDS011;7469;50.906;6.952;2023-07-31T12:23:33;1.20;;;1.10;;
14754;SDS011;7469;50.906;6.952;2023-07-31T12:26:02;1.90;;;1.13;;
14754;SDS011;7469;50.906;6.952;2023-07-31T12:28:34;1.30;;;1.00;;
14754;SDS011;7469;50.906;6.952;2023-07-31T12:31:04;3.93;;;1.20;;
14754;SDS011;7469;50.906;6.952;2023-07-31T12:33:34;1.10;;;1.00;;
14754;SDS011;7469;50.906;6.952;2023-07-31T12:36:03;1.13;;;1.07;;
14754;SDS011;7469;50.906;6.952;2023-07-31T12:38:33;1.60;;;1.50;;
14754;SDS011;7469;50.906;6.952;2023-07-31T12:41:02;1.80;;;1.30;;
14754;SDS011;7469;50.906;6.952;2023-07-31T12:43:30;1.23;;;1.13;;
14754;SDS011;7469;50.906;6.952;2023-07-31T12:45:58;1.40;;;1.27;;
14754;SDS011;7469;50.906;6.952;2023-07-31T12:48:27;2.40;;;1.60;;
14754;SDS011;7469;50.906;6.952;2023-07-31T12:50:56;1.50;;;1.40;;
14754;SDS011;7469;50.906;6.952;2023-07-31T12:53:24;2.17;;;1.57;;
14754;SDS011;7469;50.906;6.952;2023-07-31T12:55:52;2.37;;;1.80;;
14754;SDS011;7469;50.906;6.952;2023-07-31T12:58:20;2.30;;;1.70;;
14754;SDS011;7469;50.906;6.952;2023-07-31T13:00:48;1.90;;;1.80;;
14754;SDS011;7469;50.906;6.952;2023-07-31T13:03:16;2.43;;;2.23;;
14754;SDS011;7469;50.906;6.952;2023-07-31T13:05:44;3.70;;;2.47;;
14754;SDS011;7469;50.906;6.952;2023-07-31T13:08:14;2.93;;;2.43;;
14754;SDS011;7469;50.906;6.952;2023-07-31T13:10:43;2.47;;;2.27;;
14754;SDS011;7469;50.906;6.952;2023-07-31T13:13:11;2.27;;;2.07;;
14754;SDS011;7469;50.906;6.952;2023-07-31T13:15:39;3.23;;;2.70;;
14754;SDS011;7469;50.906;6.952;2023-07-31T13:18:08;2.93;;;2.37;;
14754;SDS011;7469;50.906;6.952;2023-07-31T13:20:36;2.80;;;2.30;;
14754;SDS011;7469;50.906;6.952;2023-07-31T13:23:04;6.33;;;2.40;;
14754;SDS011;7469;50.906;6.952;2023-07-31T13:25:34;2.83;;;2.50;;
14754;SDS011;7469;50.906;6.952;2023-07-31T13:28:02;5.00;;;2.57;;
14754;SDS011;7469;50.906;6.952;2023-07-31T13:30:30;4.23;;;2.37;;
14754;SDS011;7469;50.906;6.952;2023-07-31T13:32:58;3.13;;;2.63;;
14754;SDS011;7469;50.906;6.952;2023-07-31T13:35:26;3.37;;;2.50;;
14754;SDS011;7469;50.906;6.952;2023-07-31T13:37:54;3.00;;;2.47;;
14754;SDS011;7469;50.906;6.952;2023-07-31T13:40:22;4.27;;;2.47;;
14754;SDS011;7469;50.906;6.952;2023-07-31T13:42:51;3.57;;;2.70;;
14754;SDS011;7469;50.906;6.952;2023-07-31T13:45:20;2.70;;;2.13;;
14754;SDS011;7469;50.906;6.952;2023-07-31T13:47:49;2.10;;;1.90;;
14754;SDS011;7469;50.906;6.952;2023-07-31T13:50:18;3.10;;;2.20;;
14754;SDS011;7469;50.906;6.952;2023-07-31T13:52:47;4.87;;;2.27;;
14754;SDS011;7469;50.906;6.952;2023-07-31T13:55:15;2.93;;;2.20;;
14754;SDS011;7469;50.906;6.952;2023-07-31T13:57:43;2.20;;;2.00;;
14754;SDS011;7469;50.906;6.952;2023-07-31T14:00:13;3.33;;;2.40;;
14754;SDS011;7469;50.906;6.952;2023-07-31T14:02:41;3.07;;;2.10;;
14754;SDS011;7469;50.906;6.952;2023-07-31T14:05:09;2.27;;;2.07;;
14754;SDS011;7469;50.906;6.952;2023-07-31T14:07:37;4.80;;;2.10;;
14754;SDS011;7469;50.906;6.952;2023-07-31T14:10:06;2.67;;;2.23;;
14754;SDS011;7469;50.906;6.952;2023-07-31T14:12:34;2.30;;;1.83;;
14754;SDS011;7469;50.906;6.952;2023-07-31T14:15:08;2.37;;;2.13;;
14754;SDS011;7469;50.906;6.952;2023-07-31T14:17:38;2.67;;;2.20;;
14754;SDS011;7469;50.906;6.952;2023-07-31T14:20:07;2.47;;;1.87;;
14754;SDS011;7469;50.906;6.952;2023-07-31T14:22:36;2.50;;;2.13;;
14754;SDS011;7469;50.906;6.952;2023-07-31T14:25:05;2.10;;;1.90;;
14754;SDS011;7469;50.906;6.952;2023-07-31T14:27:33;2.23;;;2.03;;
14754;SDS011;7469;50.906;6.952;2023-07-31T14:30:01;2.43;;;2.23;;
14754;SDS011;7469;50.906;6.952;2023-07-31T14:32:29;4.07;;;2.60;;
14754;SDS011;7469;50.906;6.952;2023-07-31T14:34:59;2.80;;;2.10;;
14754;SDS011;7469;50.906;6.952;2023-07-31T14:37:35;2.40;;;2.10;;
14754;SDS011;7469;50.906;6.952;2023-07-31T14:40:04;2.40;;;2.20;;
14754;SDS011;7469;50.906;6.952;2023-07-31T14:42:33;3.27;;;2.60;;
14754;SDS011;7469;50.906;6.952;2023-07-31T14:45:02;2.47;;;2.27;;
14754;SDS011;7469;50.906;6.952;2023-07-31T14:47:30;3.00;;;2.40;;
14754;SDS011;7469;50.906;6.952;2023-07-31T14:49:59;2.50;;;2.30;;
14754;SDS011;7469;50.906;6.952;2023-07-31T14:52:28;2.73;;;2.23;;
14754;SDS011;7469;50.906;6.952;2023-07-31T14:54:56;3.57;;;2.37;;
14754;SDS011;7469;50.906;6.952;2023-07-31T14:57:24;3.70;;;2.30;;
14754;SDS011;7469;50.906;6.952;2023-07-31T14:59:53;3.13;;;2.50;;
14754;SDS011;7469;50.906;6.952;2023-07-31T15:02:21;6.03;;;2.27;;
14754;SDS011;7469;50.906;6.952;2023-07-31T15:04:49;4.10;;;2.80;;
14754;SDS011;7469;50.906;6.952;2023-07-31T15:07:18;3.13;;;2.83;;
14754;SDS011;7469;50.906;6.952;2023-07-31T15:09:46;3.50;;;2.47;;
14754;SDS011;7469;50.906;6.952;2023-07-31T15:12:14;5.43;;;3.03;;
14754;SDS011;7469;50.906;6.952;2023-07-31T15:14:42;2.87;;;2.67;;